Time;durP1;ratioP1;P1;durP2;ratioP2;P2;SDS_P1;SDS_P2;PMS_P1;PMS_P2;Temp;Humidity;BMP_temperature;BMP_pressure;BME280_temperature;BME280_humidity;BME280_pressure;Samples;Min_cycle;Max_cycle;Signal;HPM_P1;HPM_P2
2023/03/07 00:00:32;;;;;;;23.80;11.67;;;3.70;41.00;;;;;;5025839;28;49450;-80
2023/03/07 00:02:57;;;;;;;16.73;8.93;;;3.80;41.00;;;;;;5033644;28;46494;-81
2023/03/07 00:05:23;;;;;;;18.70;10.70;;;3.80;41.00;;;;;;5039767;28;46343;-81
2023/03/07 00:07:48;;;;;;;31.30;15.03;;;3.80;41.10;;;;;;5040734;28;46602;-81
2023/03/07 00:10:14;;;;;;;35.27;16.80;;;3.70;41.10;;;;;;5027141;28;48503;-81
2023/03/07 00:12:39;;;;;;;26.70;14.60;;;3.70;41.20;;;;;;5045468;28;45794;-81
2023/03/07 00:15:06;;;;;;;27.03;13.90;;;3.70;41.30;;;;;;5045675;28;46432;-81
2023/03/07 00:17:35;;;;;;;30.37;15.10;;;3.70;41.10;;;;;;5041339;28;46215;-81
2023/03/07 00:20:00;;;;;;;25.50;12.63;;;3.70;41.40;;;;;;5031467;28;48199;-80
2023/03/07 00:22:26;;;;;;;32.83;15.70;;;3.60;41.60;;;;;;5030523;28;46374;-81
2023/03/07 00:24:52;;;;;;;36.30;16.17;;;3.60;41.50;;;;;;5031896;28;46332;-81
2023/03/07 00:27:17;;;;;;;25.30;13.17;;;3.60;41.50;;;;;;5045624;28;46496;-82
2023/03/07 00:29:43;;;;;;;39.00;19.30;;;3.60;41.40;;;;;;5045559;28;46371;-82
2023/03/07 00:32:09;;;;;;;32.80;17.93;;;3.70;41.40;;;;;;5048764;28;45902;-83
2023/03/07 00:34:34;;;;;;;23.27;11.80;;;3.60;41.40;;;;;;5049666;28;46459;-79
2023/03/07 00:37:00;;;;;;;24.23;14.30;;;3.60;41.40;;;;;;5053237;28;46495;-84
2023/03/07 00:39:25;;;;;;;27.47;12.93;;;3.60;41.20;;;;;;5048215;28;46674;-84
2023/03/07 00:41:51;;;;;;;29.80;13.90;;;3.70;41.20;;;;;;5053175;28;46402;-84
2023/03/07 00:44:16;;;;;;;25.70;12.73;;;3.70;41.40;;;;;;5048353;28;46205;-79
2023/03/07 00:46:42;;;;;;;22.03;9.10;;;3.70;41.30;;;;;;5041184;28;46505;-80
2023/03/07 00:49:07;;;;;;;14.50;8.10;;;3.70;41.20;;;;;;5018812;28;48702;-79
2023/03/07 00:51:33;;;;;;;16.67;9.40;;;3.70;41.30;;;;;;5047185;28;46615;-80
2023/03/07 00:53:59;;;;;;;14.33;8.37;;;3.60;41.30;;;;;;5042793;28;46356;-81
2023/03/07 00:56:25;;;;;;;15.93;8.20;;;3.70;41.40;;;;;;5023598;28;46580;-80
2023/03/07 00:58:51;;;;;;;14.77;8.50;;;3.70;41.40;;;;;;5038007;28;46935;-81
2023/03/07 01:01:21;;;;;;;13.60;7.93;;;3.70;41.30;;;;;;5025626;28;46419;-81
2023/03/07 01:03:48;;;;;;;15.25;8.70;;;3.70;41.30;;;;;;5044378;28;46396;-79
2023/03/07 01:06:17;;;;;;;17.10;9.23;;;3.70;41.20;;;;;;5022896;28;46227;-80
2023/03/07 01:08:43;;;;;;;13.33;7.23;;;3.70;41.10;;;;;;5034697;28;47139;-80
2023/03/07 01:11:10;;;;;;;11.82;7.15;;;3.70;41.10;;;;;;5026352;28;46666;-81
2023/03/07 01:13:36;;;;;;;13.37;8.40;;;3.70;41.10;;;;;;5025142;28;46456;-80
2023/03/07 01:16:20;;;;;;;14.53;8.33;;;3.80;41.10;;;;;;5043262;28;46349;-80
2023/03/07 01:18:55;;;;;;;13.70;7.63;;;3.80;40.90;;;;;;5031960;28;46600;-79
2023/03/07 01:21:23;;;;;;;14.97;8.60;;;3.70;40.90;;;;;;5035003;28;46448;-79
2023/03/07 01:23:49;;;;;;;15.00;8.73;;;3.70;41.00;;;;;;5016100;28;46886;-79
2023/03/07 01:26:18;;;;;;;13.83;7.53;;;3.70;41.20;;;;;;5032351;28;46205;-80
2023/03/07 01:28:44;;;;;;;17.20;7.90;;;3.70;41.20;;;;;;5033210;28;47118;-79
2023/03/07 01:31:10;;;;;;;16.10;8.20;;;3.70;41.20;;;;;;5017303;28;46686;-81
2023/03/07 01:33:36;;;;;;;16.45;7.78;;;3.70;41.10;;;;;;5019262;28;46370;-81
2023/03/07 01:36:01;;;;;;;16.23;8.00;;;3.70;41.10;;;;;;5033070;28;46520;-79
2023/03/07 01:38:32;;;;;;;13.80;7.50;;;3.80;41.20;;;;;;5028847;28;46353;-80
2023/03/07 01:41:00;;;;;;;14.63;7.55;;;3.70;41.20;;;;;;5035384;28;46577;-80
2023/03/07 01:43:31;;;;;;;12.40;7.30;;;3.70;41.10;;;;;;5037086;28;46404;-79
2023/03/07 01:46:23;;;;;;;12.20;7.53;;;3.70;41.00;;;;;;5033333;28;47646;-81
2023/03/07 01:49:12;;;;;;;15.27;7.77;;;3.70;40.80;;;;;;5023162;28;48363;-80
2023/03/07 01:51:40;;;;;;;15.18;7.57;;;3.70;40.90;;;;;;5034592;28;46441;-79
2023/03/07 01:54:09;;;;;;;13.18;8.05;;;3.70;41.00;;;;;;5034531;28;46393;-79
2023/03/07 01:56:36;;;;;;;14.03;7.10;;;3.70;41.10;;;;;;5026550;28;45940;-80
2023/03/07 01:59:02;;;;;;;10.83;6.93;;;3.70;40.90;;;;;;5035546;28;46428;-80
2023/03/07 02:01:28;;;;;;;12.75;7.47;;;3.70;41.00;;;;;;5033719;28;46498;-79
2023/03/07 02:04:01;;;;;;;12.03;6.60;;;3.80;40.90;;;;;;5035931;28;46298;-79
2023/03/07 02:06:29;;;;;;;12.83;7.23;;;3.80;40.90;;;;;;5039312;28;46416;-80
2023/03/07 02:08:57;;;;;;;16.80;7.60;;;3.70;40.90;;;;;;5038048;28;46397;-80
2023/03/07 02:11:23;;;;;;;14.02;7.55;;;3.70;40.90;;;;;;5041843;28;46472;-79
2023/03/07 02:13:49;;;;;;;13.05;7.28;;;3.70;41.00;;;;;;5039476;28;46210;-80
2023/03/07 02:16:15;;;;;;;13.07;7.03;;;3.70;40.90;;;;;;5018674;28;46485;-80
2023/03/07 02:18:44;;;;;;;11.67;7.00;;;3.70;41.00;;;;;;5001573;28;48511;-81
2023/03/07 02:21:29;;;;;;;11.95;7.25;;;3.70;40.90;;;;;;5049707;28;46431;-80
2023/03/07 02:24:20;;;;;;;13.80;6.93;;;3.70;40.90;;;;;;5055818;28;45724;-79
2023/03/07 02:26:47;;;;;;;12.37;6.97;;;3.70;41.00;;;;;;5041993;28;47254;-82
2023/03/07 02:29:13;;;;;;;15.98;7.30;;;3.60;41.00;;;;;;5036195;28;47312;-81
2023/03/07 02:31:40;;;;;;;10.90;7.13;;;3.60;41.10;;;;;;5033872;28;46425;-82
2023/03/07 02:34:20;;;;;;;12.82;6.80;;;3.60;41.10;;;;;;5020142;28;45795;-80
2023/03/07 02:36:49;;;;;;;15.63;7.53;;;3.60;41.10;;;;;;5031821;28;46401;-80
2023/03/07 02:39:16;;;;;;;12.38;6.97;;;3.60;41.10;;;;;;5039156;28;46403;-80
2023/03/07 02:41:41;;;;;;;13.68;7.43;;;3.60;41.00;;;;;;5023400;28;46490;-79
2023/03/07 02:44:07;;;;;;;12.10;7.23;;;3.70;41.00;;;;;;5039334;28;46252;-78
2023/03/07 02:46:32;;;;;;;18.20;8.17;;;3.70;40.90;;;;;;5034163;28;46345;-78
2023/03/07 02:48:58;;;;;;;13.57;7.80;;;3.70;40.60;;;;;;5041561;28;46441;-79
2023/03/07 02:51:24;;;;;;;12.17;7.37;;;3.70;40.70;;;;;;5037460;28;46362;-79
2023/03/07 02:53:49;;;;;;;12.20;7.07;;;3.70;40.90;;;;;;5037606;28;46321;-79
2023/03/07 02:56:15;;;;;;;14.50;7.80;;;3.70;40.70;;;;;;5018493;28;46764;-82
2023/03/07 02:58:40;;;;;;;13.00;7.40;;;3.70;40.80;;;;;;5041853;28;46219;-80
2023/03/07 03:01:06;;;;;;;13.00;7.20;;;3.70;40.70;;;;;;5037949;28;46620;-79
2023/03/07 03:03:31;;;;;;;12.27;7.20;;;3.70;40.80;;;;;;5042192;28;46426;-79
2023/03/07 03:05:57;;;;;;;15.70;7.77;;;3.70;40.70;;;;;;5021796;28;46482;-80
2023/03/07 03:08:22;;;;;;;12.80;7.60;;;3.70;40.70;;;;;;5038018;28;46423;-79
2023/03/07 03:10:53;;;;;;;11.40;6.90;;;3.70;40.60;;;;;;5020702;28;47375;-79
2023/03/07 03:13:19;;;;;;;12.98;6.75;;;3.70;40.60;;;;;;5033922;28;46369;-79
2023/03/07 03:15:44;;;;;;;13.03;7.50;;;3.70;40.80;;;;;;5037562;28;47054;-80
2023/03/07 03:18:10;;;;;;;16.13;7.00;;;3.70;40.80;;;;;;5038745;28;46443;-79
2023/03/07 03:20:39;;;;;;;13.10;7.40;;;3.60;40.90;;;;;;5036016;28;46437;-79
2023/03/07 03:23:04;;;;;;;14.30;7.50;;;3.60;40.90;;;;;;5039049;28;46486;-78
2023/03/07 03:25:30;;;;;;;15.00;7.90;;;3.60;40.80;;;;;;5020697;28;46668;-80
2023/03/07 03:27:56;;;;;;;12.90;7.17;;;3.60;40.70;;;;;;5017904;28;48037;-78
2023/03/07 03:30:21;;;;;;;13.63;7.73;;;3.60;40.90;;;;;;5035168;28;46328;-79
2023/03/07 03:32:47;;;;;;;14.30;7.40;;;3.60;40.90;;;;;;5017811;28;45786;-78
2023/03/07 03:35:13;;;;;;;13.23;7.10;;;3.60;40.80;;;;;;5034219;28;46483;-78
2023/03/07 03:37:39;;;;;;;24.88;15.00;;;3.60;40.70;;;;;;5042718;28;46348;-80
2023/03/07 03:40:12;;;;;;;16.97;9.00;;;3.60;40.90;;;;;;5019704;28;46370;-79
2023/03/07 03:42:40;;;;;;;25.50;12.60;;;3.60;40.90;;;;;;5040092;28;46423;-78
2023/03/07 03:45:06;;;;;;;12.83;7.60;;;3.60;40.90;;;;;;5033708;28;46376;-79
2023/03/07 03:47:32;;;;;;;14.20;8.40;;;3.60;40.80;;;;;;5040307;28;47314;-80
2023/03/07 03:49:57;;;;;;;13.60;8.57;;;3.60;40.70;;;;;;5037353;28;46475;-80
2023/03/07 03:52:23;;;;;;;15.10;7.77;;;3.60;40.70;;;;;;5022348;28;46443;-79
2023/03/07 03:54:48;;;;;;;14.37;7.47;;;3.60;41.90;;;;;;5036757;28;46554;-79
2023/03/07 03:57:19;;;;;;;13.87;7.80;;;3.60;40.80;;;;;;5038481;28;46445;-78
2023/03/07 03:59:45;;;;;;;11.10;6.90;;;3.50;40.70;;;;;;5037631;28;46383;-79
2023/03/07 04:02:11;;;;;;;11.73;6.55;;;3.40;40.90;;;;;;5036199;28;46500;-81
2023/03/07 04:04:36;;;;;;;14.13;8.70;;;3.30;41.30;;;;;;5029729;28;47061;-80
2023/03/07 04:07:03;;;;;;;16.53;7.90;;;3.20;41.30;;;;;;5041572;28;46597;-81
2023/03/07 04:09:30;;;;;;;14.65;7.25;;;3.10;41.50;;;;;;5039606;28;45853;-77
2023/03/07 04:11:55;;;;;;;12.27;7.05;;;3.00;41.60;;;;;;5038923;28;46337;-80
2023/03/07 04:14:21;;;;;;;13.10;7.47;;;2.90;42.00;;;;;;5037941;28;46481;-79
2023/03/07 04:16:48;;;;;;;14.43;7.53;;;2.80;41.90;;;;;;5039406;28;47334;-79
2023/03/07 04:19:13;;;;;;;16.73;7.70;;;2.70;42.10;;;;;;5036280;28;46347;-80
2023/03/07 04:21:39;;;;;;;13.67;7.20;;;2.60;42.10;;;;;;5024528;28;46573;-78
2023/03/07 04:24:08;;;;;;;14.10;7.97;;;2.50;42.20;;;;;;5037320;28;46486;-79
2023/03/07 04:26:35;;;;;;;11.73;6.97;;;2.50;43.50;;;;;;5038453;28;46384;-79
2023/03/07 04:29:00;;;;;;;12.35;7.80;;;2.40;42.40;;;;;;5023778;28;46442;-79
2023/03/07 04:31:27;;;;;;;14.27;7.60;;;2.30;42.50;;;;;;5040680;28;46429;-78
2023/03/07 04:33:55;;;;;;;13.77;7.88;;;2.30;42.70;;;;;;5018796;28;46691;-77
2023/03/07 04:36:22;;;;;;;13.55;7.57;;;2.20;42.60;;;;;;5025659;28;49145;-79
2023/03/07 04:38:49;;;;;;;13.90;7.72;;;2.10;42.70;;;;;;5039055;28;46496;-79
2023/03/07 04:41:17;;;;;;;16.23;7.90;;;2.10;42.80;;;;;;5024100;28;46402;-79
2023/03/07 04:43:43;;;;;;;14.90;7.63;;;2.00;42.80;;;;;;5042256;28;46468;-79
2023/03/07 04:46:11;;;;;;;12.37;7.30;;;2.00;42.90;;;;;;5039599;28;46384;-79
2023/03/07 04:48:36;;;;;;;13.40;7.50;;;2.00;43.10;;;;;;5035406;28;46274;-78
2023/03/07 04:51:02;;;;;;;14.20;7.70;;;1.90;43.10;;;;;;5036229;28;46469;-78
2023/03/07 04:53:28;;;;;;;16.90;8.70;;;1.90;43.00;;;;;;5037813;28;46474;-79
2023/03/07 04:56:02;;;;;;;11.73;6.70;;;1.80;43.00;;;;;;5036702;28;46286;-79
2023/03/07 04:58:28;;;;;;;18.10;8.80;;;1.80;43.00;;;;;;5013259;28;46496;-80
2023/03/07 05:00:57;;;;;;;22.10;9.82;;;1.70;43.10;;;;;;5029368;28;46360;-78
2023/03/07 05:03:25;;;;;;;18.30;8.48;;;1.70;43.20;;;;;;5033310;28;46408;-78
2023/03/07 05:05:50;;;;;;;14.25;6.68;;;1.70;43.20;;;;;;5033069;28;46281;-79
2023/03/07 05:08:16;;;;;;;14.00;6.63;;;1.60;43.10;;;;;;5034067;28;45798;-79
2023/03/07 05:10:42;;;;;;;10.90;5.93;;;1.60;43.10;;;;;;5014046;28;46383;-79
2023/03/07 05:13:07;;;;;;;10.17;5.97;;;1.60;43.10;;;;;;5022423;28;45965;-78
2023/03/07 05:15:33;;;;;;;12.30;6.57;;;1.60;43.00;;;;;;5038540;28;46143;-77
2023/03/07 05:17:59;;;;;;;11.52;6.72;;;1.60;43.00;;;;;;5038761;28;46290;-79
2023/03/07 05:20:25;;;;;;;12.10;6.53;;;1.60;42.90;;;;;;5039316;28;45943;-78
2023/03/07 05:22:50;;;;;;;11.53;5.90;;;1.70;43.10;;;;;;5036710;28;46576;-79
2023/03/07 05:25:16;;;;;;;11.77;6.50;;;1.60;43.00;;;;;;5021383;28;48321;-78
2023/03/07 05:27:42;;;;;;;13.10;6.50;;;1.60;43.00;;;;;;5036328;28;46776;-79
2023/03/07 05:30:09;;;;;;;11.30;6.47;;;1.50;42.90;;;;;;5014199;28;46393;-79
2023/03/07 05:32:34;;;;;;;12.30;6.15;;;1.50;42.90;;;;;;5028881;28;46585;-77
2023/03/07 05:35:00;;;;;;;12.90;5.60;;;1.50;42.90;;;;;;5040404;28;46334;-79
2023/03/07 05:37:25;;;;;;;14.00;6.90;;;1.50;42.90;;;;;;5043453;28;46448;-81
2023/03/07 05:39:51;;;;;;;13.60;6.47;;;1.50;42.80;;;;;;5059965;28;45816;-80
2023/03/07 05:42:16;;;;;;;11.00;6.07;;;1.50;42.80;;;;;;5058676;28;45834;-80
2023/03/07 05:44:42;;;;;;;9.97;5.90;;;1.40;42.90;;;;;;5045668;28;46503;-82
2023/03/07 05:47:08;;;;;;;10.50;5.80;;;1.40;43.00;;;;;;5041614;28;46524;-78
2023/03/07 05:49:33;;;;;;;10.57;5.80;;;1.40;43.00;;;;;;5042449;28;46447;-78
2023/03/07 05:51:59;;;;;;;13.10;6.50;;;1.40;42.80;;;;;;5037114;28;45986;-78
2023/03/07 05:54:24;;;;;;;10.50;5.77;;;1.40;42.70;;;;;;5040156;28;46463;-79
2023/03/07 05:56:50;;;;;;;12.63;6.43;;;1.40;42.60;;;;;;5042667;28;46398;-78
2023/03/07 05:59:16;;;;;;;13.87;6.30;;;1.40;42.70;;;;;;5042831;28;46392;-81
2023/03/07 06:01:41;;;;;;;10.43;6.23;;;1.40;42.70;;;;;;5042161;28;47103;-81
2023/03/07 06:04:08;;;;;;;11.27;5.80;;;1.40;42.70;;;;;;5043398;28;46364;-79
2023/03/07 06:06:33;;;;;;;9.77;5.18;;;1.40;42.70;;;;;;5028748;28;46297;-82
2023/03/07 06:08:59;;;;;;;11.07;5.83;;;1.40;42.90;;;;;;5049455;28;46250;-81
2023/03/07 06:11:24;;;;;;;14.20;6.67;;;1.40;42.70;;;;;;5045756;28;46587;-78
2023/03/07 06:13:50;;;;;;;10.23;5.70;;;1.50;42.50;;;;;;5036445;28;47465;-77
2023/03/07 06:16:16;;;;;;;12.10;5.60;;;1.60;42.40;;;;;;5036333;28;46392;-77
2023/03/07 06:18:41;;;;;;;10.53;5.37;;;1.80;42.20;;;;;;5039172;28;46484;-78
2023/03/07 06:21:09;;;;;;;9.77;5.90;;;2.00;41.90;;;;;;5020807;28;46277;-79
2023/03/07 06:23:36;;;;;;;14.00;6.03;;;2.20;41.60;;;;;;5039069;28;47435;-78
2023/03/07 06:26:02;;;;;;;12.32;6.05;;;2.40;41.30;;;;;;5035573;28;46600;-79
2023/03/07 06:28:28;;;;;;;10.00;5.25;;;2.50;41.00;;;;;;5033875;28;45839;-79
2023/03/07 06:30:54;;;;;;;11.60;6.43;;;2.70;40.90;;;;;;5017325;28;46374;-79
2023/03/07 06:33:19;;;;;;;8.90;5.33;;;2.80;40.60;;;;;;5036305;28;46432;-80
2023/03/07 06:35:45;;;;;;;11.53;5.73;;;3.10;40.20;;;;;;5039310;28;46416;-78
2023/03/07 06:38:13;;;;;;;11.15;6.05;;;3.30;40.00;;;;;;5033150;28;46287;-80
2023/03/07 06:40:39;;;;;;;16.00;7.17;;;3.50;39.90;;;;;;5038808;28;46515;-79
2023/03/07 06:43:05;;;;;;;10.30;5.77;;;3.60;40.00;;;;;;5032522;28;45988;-82
2023/03/07 06:45:30;;;;;;;10.70;6.30;;;3.60;39.90;;;;;;5038917;28;46493;-82
2023/03/07 06:47:56;;;;;;;9.70;5.27;;;3.70;39.70;;;;;;5037051;28;46447;-80
2023/03/07 06:50:22;;;;;;;12.23;5.60;;;3.80;39.70;;;;;;5022907;28;46512;-80
2023/03/07 06:52:50;;;;;;;9.87;5.87;;;3.90;39.80;;;;;;5033732;28;48576;-82
2023/03/07 06:55:18;;;;;;;9.18;4.65;;;4.00;39.80;;;;;;5024889;28;46349;-81
2023/03/07 06:57:45;;;;;;;13.25;6.15;;;4.10;39.40;;;;;;5034754;28;46554;-82
2023/03/07 07:00:12;;;;;;;11.40;6.67;;;4.20;39.50;;;;;;5043746;28;46408;-81
2023/03/07 07:02:37;;;;;;;10.10;5.73;;;4.30;39.50;;;;;;5037256;28;46146;-82
2023/03/07 07:05:03;;;;;;;10.63;5.67;;;4.30;39.40;;;;;;5024704;28;46474;-81
2023/03/07 07:07:30;;;;;;;17.55;11.55;;;4.30;39.40;;;;;;5037387;28;46263;-82
2023/03/07 07:09:55;;;;;;;10.90;6.07;;;4.40;39.40;;;;;;5023471;28;46302;-79
2023/03/07 07:12:21;;;;;;;11.70;7.07;;;4.40;39.30;;;;;;5014469;28;48468;-82
2023/03/07 07:14:46;;;;;;;24.97;13.53;;;4.60;39.20;;;;;;5034508;28;45737;-80
2023/03/07 07:17:12;;;;;;;12.40;7.70;;;4.60;38.90;;;;;;5033108;28;46617;-82
2023/03/07 07:19:38;;;;;;;11.27;6.37;;;4.60;39.00;;;;;;5035589;28;46644;-80
2023/03/07 07:22:05;;;;;;;18.50;10.87;;;4.80;39.00;;;;;;5022462;28;47931;-82
2023/03/07 07:24:30;;;;;;;11.75;5.78;;;4.80;38.80;;;;;;5032652;28;46459;-82
2023/03/07 07:26:56;;;;;;;13.57;6.57;;;4.80;38.80;;;;;;5036719;28;46466;-80
2023/03/07 07:29:22;;;;;;;12.30;6.83;;;5.00;38.80;;;;;;5029572;28;46389;-81
2023/03/07 07:31:50;;;;;;;8.40;5.50;;;4.90;38.80;;;;;;5042612;28;46403;-80
2023/03/07 07:34:16;;;;;;;15.15;6.15;;;4.90;38.60;;;;;;5033396;28;46442;-81
2023/03/07 07:36:41;;;;;;;11.20;6.50;;;5.00;38.50;;;;;;5037675;28;46309;-80
2023/03/07 07:39:09;;;;;;;10.87;5.80;;;5.10;38.50;;;;;;5023933;28;46469;-80
2023/03/07 07:41:35;;;;;;;13.83;5.53;;;5.00;37.80;;;;;;5034052;28;47182;-80
2023/03/07 07:44:00;;;;;;;11.70;6.50;;;5.10;38.00;;;;;;5037560;28;46642;-81
2023/03/07 07:46:29;;;;;;;12.27;5.90;;;5.20;38.00;;;;;;5041204;28;46519;-79
2023/03/07 07:48:55;;;;;;;9.43;6.30;;;5.20;37.70;;;;;;5034785;28;46387;-78
2023/03/07 07:51:20;;;;;;;10.97;5.97;;;5.10;37.60;;;;;;5031842;28;46458;-81
2023/03/07 07:53:46;;;;;;;14.63;6.10;;;5.10;37.70;;;;;;5027590;28;46389;-80
2023/03/07 07:56:12;;;;;;;13.63;6.63;;;5.00;37.70;;;;;;5027987;28;46230;-82
2023/03/07 07:58:39;;;;;;;11.13;6.17;;;5.00;37.70;;;;;;5046448;28;46623;-83
2023/03/07 08:01:19;;;;;;;10.93;6.03;;;5.10;37.60;;;;;;5018264;28;48163;-80
2023/03/07 08:03:45;;;;;;;8.67;5.70;;;5.30;37.30;;;;;;5020076;28;46998;-79
2023/03/07 08:06:12;;;;;;;9.60;5.23;;;5.40;38.40;;;;;;5033631;28;46664;-81
2023/03/07 08:08:38;;;;;;;10.00;5.73;;;5.50;37.00;;;;;;5045943;28;46455;-82
2023/03/07 08:11:04;;;;;;;8.50;5.40;;;5.70;36.60;;;;;;5023283;28;48285;-80
2023/03/07 08:13:30;;;;;;;15.10;5.60;;;5.80;36.10;;;;;;5033657;28;46370;-82
2023/03/07 08:15:55;;;;;;;10.90;6.47;;;5.90;36.00;;;;;;5038908;28;46485;-82
2023/03/07 08:18:21;;;;;;;10.70;5.97;;;6.00;35.90;;;;;;5039072;28;46384;-80
2023/03/07 08:20:47;;;;;;;10.27;5.70;;;6.10;36.10;;;;;;5037973;28;46442;-80
2023/03/07 08:23:12;;;;;;;12.83;7.20;;;6.10;36.10;;;;;;5040300;28;46222;-80
2023/03/07 08:25:38;;;;;;;10.00;6.90;;;6.20;36.10;;;;;;5017505;28;45730;-83
2023/03/07 08:28:04;;;;;;;12.73;6.20;;;6.30;35.70;;;;;;5040140;28;46039;-80
2023/03/07 08:30:32;;;;;;;10.70;5.27;;;6.30;35.00;;;;;;5042808;28;47579;-80
2023/03/07 08:32:58;;;;;;;10.47;5.80;;;6.30;33.70;;;;;;5038262;28;46903;-82
2023/03/07 08:35:25;;;;;;;8.90;5.40;;;6.20;34.00;;;;;;5037629;28;46410;-82
2023/03/07 08:37:56;;;;;;;9.90;5.20;;;6.20;34.00;;;;;;5026518;28;46435;-82
2023/03/07 08:40:23;;;;;;;13.10;6.57;;;6.30;33.90;;;;;;5058300;28;46299;-82
2023/03/07 08:42:49;;;;;;;15.20;7.33;;;6.40;33.80;;;;;;5049547;28;46466;-82
2023/03/07 08:45:15;;;;;;;11.20;6.40;;;6.50;33.70;;;;;;5038368;28;46367;-80
2023/03/07 08:47:40;;;;;;;10.67;6.20;;;6.30;33.00;;;;;;5037914;28;46405;-81
2023/03/07 08:50:07;;;;;;;15.80;6.00;;;6.20;32.20;;;;;;5032375;28;48838;-81
2023/03/07 08:52:32;;;;;;;16.80;9.10;;;6.10;31.80;;;;;;5032480;28;46266;-82
2023/03/07 08:54:58;;;;;;;14.00;6.40;;;6.30;32.40;;;;;;5037543;28;46598;-82
2023/03/07 08:57:24;;;;;;;12.10;6.37;;;6.40;31.30;;;;;;5038540;28;46508;-83
2023/03/07 08:59:50;;;;;;;24.23;14.20;;;6.40;31.50;;;;;;5022736;28;48260;-80
2023/03/07 09:02:15;;;;;;;13.87;8.90;;;6.60;31.60;;;;;;5028792;28;46471;-80
2023/03/07 09:04:41;;;;;;;13.97;6.93;;;6.70;31.50;;;;;;5038899;28;47648;-80
2023/03/07 09:07:07;;;;;;;13.70;7.00;;;6.90;31.50;;;;;;5032101;28;46444;-81
2023/03/07 09:09:32;;;;;;;13.97;7.37;;;7.00;30.90;;;;;;5026046;28;47981;-83
2023/03/07 09:11:58;;;;;;;10.57;5.80;;;7.10;31.00;;;;;;5041575;28;46157;-81
2023/03/07 09:14:23;;;;;;;10.70;7.03;;;7.30;30.00;;;;;;5058504;28;45827;-83
2023/03/07 09:16:49;;;;;;;11.13;6.20;;;7.20;29.50;;;;;;5043638;28;46393;-81
2023/03/07 09:19:14;;;;;;;18.40;7.57;;;6.90;29.20;;;;;;5053859;28;46365;-80
2023/03/07 09:21:40;;;;;;;13.43;6.50;;;6.90;30.00;;;;;;5041034;28;45949;-82
2023/03/07 09:24:07;;;;;;;11.70;6.03;;;7.10;29.20;;;;;;5031904;28;46492;-81
2023/03/07 09:26:33;;;;;;;9.73;4.77;;;7.10;29.30;;;;;;5043083;28;45873;-81
2023/03/07 09:28:59;;;;;;;12.57;6.23;;;7.10;28.40;;;;;;5044995;28;46423;-81
2023/03/07 09:31:24;;;;;;;10.83;5.73;;;7.20;29.00;;;;;;5039854;28;46512;-81
2023/03/07 09:33:51;;;;;;;11.53;5.97;;;7.50;29.00;;;;;;5026949;28;46541;-82
2023/03/07 09:36:18;;;;;;;15.23;6.30;;;7.80;29.00;;;;;;5040863;28;46353;-81
2023/03/07 09:38:44;;;;;;;11.57;6.30;;;8.20;28.30;;;;;;5033618;28;48560;-81
2023/03/07 09:41:38;;;;;;;13.40;6.20;;;8.40;27.70;;;;;;5029833;28;46461;-80
2023/03/07 09:44:26;;;;;;;18.80;6.23;;;8.60;27.50;;;;;;5046316;28;46259;-82
2023/03/07 09:47:22;;;;;;;10.47;5.77;;;8.50;25.90;;;;;;5045228;28;46302;-82
2023/03/07 09:49:50;;;;;;;10.70;6.27;;;8.50;26.80;;;;;;5042400;28;46367;-82
2023/03/07 09:52:21;;;;;;;9.73;5.70;;;8.50;26.30;;;;;;5047510;28;46254;-81
2023/03/07 09:54:59;;;;;;;19.67;6.20;;;8.60;26.60;;;;;;5028020;28;46433;-81
2023/03/07 09:57:28;;;;;;;14.70;6.23;;;8.30;24.80;;;;;;5026735;28;46508;-82
2023/03/07 10:00:29;;;;;;;14.53;7.93;;;8.50;25.10;;;;;;5029581;28;48671;-82
2023/03/07 10:03:40;;;;;;;14.90;6.97;;;8.90;25.20;;;;;;5026009;28;46437;-82
2023/03/07 10:06:24;;;;;;;12.07;6.60;;;9.20;24.50;;;;;;5041299;28;46767;-80
2023/03/07 10:08:50;;;;;;;10.90;6.60;;;9.10;24.10;;;;;;5024569;28;46129;-82
2023/03/07 10:11:36;;;;;;;14.73;6.87;;;9.30;24.20;;;;;;5046295;28;46357;-82
2023/03/07 10:14:07;;;;;;;14.10;6.40;;;9.40;24.20;;;;;;5047934;28;46653;-80
2023/03/07 10:16:46;;;;;;;16.90;6.77;;;9.00;21.80;;;;;;5038239;28;46315;-83
2023/03/07 10:19:14;;;;;;;11.00;6.20;;;8.80;23.30;;;;;;5043701;28;46547;-81
2023/03/07 10:22:02;;;;;;;19.10;7.80;;;8.30;21.90;;;;;;5039016;28;46548;-81
2023/03/07 10:24:41;;;;;;;13.50;6.33;;;8.20;22.60;;;;;;5038107;28;46470;-81
2023/03/07 10:27:14;;;;;;;11.80;6.33;;;8.00;22.40;;;;;;5035291;28;46520;-80
2023/03/07 10:29:48;;;;;;;16.83;7.90;;;8.10;22.50;;;;;;5024554;28;46363;-80
2023/03/07 10:32:19;;;;;;;12.33;6.80;;;8.30;22.20;;;;;;5034869;28;46984;-82
2023/03/07 10:34:47;;;;;;;23.90;7.50;;;8.30;21.90;;;;;;5041370;28;46639;-81
2023/03/07 10:37:20;;;;;;;12.53;6.07;;;8.50;21.70;;;;;;5039741;28;45864;-81
2023/03/07 10:39:51;;;;;;;12.70;6.57;;;8.40;21.20;;;;;;5024764;28;46405;-82
2023/03/07 10:42:19;;;;;;;10.83;5.40;;;8.40;22.30;;;;;;5035861;28;48091;-82
2023/03/07 10:44:47;;;;;;;17.37;5.90;;;8.60;22.10;;;;;;5027133;28;46464;-78
2023/03/07 10:47:24;;;;;;;12.83;6.23;;;8.30;23.10;;;;;;5021042;28;46393;-81
2023/03/07 10:49:55;;;;;;;14.83;7.23;;;8.20;22.50;;;;;;5031371;28;46086;-79
2023/03/07 10:52:39;;;;;;;14.00;6.83;;;8.50;22.80;;;;;;5030690;28;46373;-80
2023/03/07 10:55:35;;;;;;;13.00;5.97;;;8.40;22.40;;;;;;5041350;28;46869;-80
2023/03/07 10:58:19;;;;;;;13.07;6.87;;;7.90;23.50;;;;;;5015239;28;46118;-83
2023/03/07 11:01:04;;;;;;;13.60;6.27;;;7.80;23.40;;;;;;5036031;28;46686;-80
2023/03/07 11:03:30;;;;;;;15.30;6.70;;;7.90;23.00;;;;;;5039835;28;46413;-81
2023/03/07 11:05:56;;;;;;;21.87;6.93;;;7.80;23.60;;;;;;5037372;28;47405;-79
2023/03/07 11:08:30;;;;;;;13.80;7.27;;;8.00;23.80;;;;;;5040945;28;46396;-81
2023/03/07 11:10:56;;;;;;;13.03;4.57;;;8.30;23.60;;;;;;5019522;28;46535;-81
2023/03/07 11:13:23;;;;;;;13.73;7.97;;;8.30;21.80;;;;;;5038361;28;47097;-83
2023/03/07 11:15:49;;;;;;;12.70;5.30;;;7.80;22.30;;;;;;5043522;28;46444;-80
2023/03/07 11:18:38;;;;;;;11.87;6.80;;;7.80;22.90;;;;;;5033918;28;46719;-81
2023/03/07 11:21:04;;;;;;;12.33;7.23;;;7.50;23.00;;;;;;5030855;28;46385;-79
2023/03/07 11:23:30;;;;;;;10.87;6.83;;;7.70;23.10;;;;;;5040303;28;46368;-83
2023/03/07 11:26:15;;;;;;;12.10;5.17;;;8.00;22.80;;;;;;5021721;28;46481;-83
2023/03/07 11:28:41;;;;;;;11.57;5.20;;;7.90;22.70;;;;;;5036072;28;46292;-80
2023/03/07 11:31:15;;;;;;;14.00;6.80;;;7.60;23.70;;;;;;5031463;28;46258;-81
2023/03/07 11:33:55;;;;;;;11.03;6.13;;;7.50;23.10;;;;;;5041488;28;47701;-80
2023/03/07 11:36:30;;;;;;;12.67;5.77;;;7.60;22.60;;;;;;5041610;28;46968;-83
2023/03/07 11:39:22;;;;;;;25.33;7.70;;;7.40;23.50;;;;;;5037008;28;46403;-79
2023/03/07 11:42:02;;;;;;;14.07;5.83;;;7.30;23.70;;;;;;5022377;28;46871;-81
2023/03/07 11:44:46;;;;;;;19.43;6.80;;;7.40;23.00;;;;;;5018571;28;48299;-82
2023/03/07 11:47:37;;;;;;;18.40;6.50;;;7.60;23.90;;;;;;5034005;28;46048;-82
2023/03/07 11:50:23;;;;;;;13.70;5.50;;;7.60;23.60;;;;;;5033365;28;46531;-82
2023/03/07 11:53:10;;;;;;;8.50;4.70;;;7.80;23.00;;;;;;5041590;28;46357;-83
2023/03/07 11:56:12;;;;;;;12.83;6.10;;;7.90;23.60;;;;;;5018539;28;48350;-82
2023/03/07 11:58:58;;;;;;;10.43;5.33;;;7.80;23.70;;;;;;5023067;28;46459;-80
2023/03/07 12:01:36;;;;;;;13.93;5.20;;;7.80;23.90;;;;;;5026007;28;46446;-81
2023/03/07 12:04:22;;;;;;;14.73;7.37;;;7.80;23.70;;;;;;5021082;28;46445;-81
2023/03/07 12:07:15;;;;;;;15.83;7.50;;;7.80;24.00;;;;;;5038633;28;46701;-81
2023/03/07 12:09:51;;;;;;;16.77;8.00;;;7.80;23.60;;;;;;5028307;28;46656;-81
2023/03/07 12:12:55;;;;;;;11.87;6.27;;;8.00;23.40;;;;;;5034321;28;47060;-81
2023/03/07 12:15:48;;;;;;;12.30;5.57;;;7.80;23.20;;;;;;5039281;28;46331;-82
2023/03/07 12:18:34;;;;;;;14.43;7.67;;;7.80;22.60;;;;;;5040118;28;46818;-82
2023/03/07 12:21:34;;;;;;;15.10;6.73;;;7.80;23.10;;;;;;5037248;28;46479;-79
2023/03/07 12:24:05;;;;;;;12.37;5.00;;;7.70;22.70;;;;;;5015493;28;46422;-81
2023/03/07 12:26:50;;;;;;;14.80;7.17;;;7.70;22.40;;;;;;5036413;28;46416;-79
2023/03/07 12:29:36;;;;;;;13.20;6.30;;;7.60;23.20;;;;;;5030575;28;47171;-80
2023/03/07 12:32:09;;;;;;;11.97;6.13;;;7.80;23.20;;;;;;5033921;28;46420;-82
2023/03/07 12:35:08;;;;;;;12.27;6.93;;;8.00;23.00;;;;;;5030282;28;46530;-81
2023/03/07 12:37:44;;;;;;;12.83;6.53;;;8.00;22.90;;;;;;5001484;28;46518;-83
2023/03/07 12:40:38;;;;;;;11.00;6.10;;;7.80;22.60;;;;;;5017571;28;49505;-82
2023/03/07 12:43:27;;;;;;;14.73;6.60;;;7.80;22.90;;;;;;5016225;28;47099;-79
2023/03/07 12:46:30;;;;;;;12.43;5.70;;;7.80;23.20;;;;;;5035737;28;46443;-80
2023/03/07 12:49:08;;;;;;;13.57;5.60;;;7.70;22.40;;;;;;5036382;28;46258;-81
2023/03/07 12:51:43;;;;;;;14.73;6.50;;;7.70;22.70;;;;;;5013802;28;48413;-80
2023/03/07 12:54:26;;;;;;;11.97;6.23;;;7.80;23.10;;;;;;5032232;28;46454;-81
2023/03/07 12:57:16;;;;;;;20.60;8.00;;;8.00;22.90;;;;;;5037693;28;46577;-80
2023/03/07 12:59:43;;;;;;;15.30;6.60;;;8.00;22.50;;;;;;5034349;28;46590;-81